Time;durP1;ratioP1;P1;durP2;ratioP2;P2;SDS_P1;SDS_P2;PMS_P1;PMS_P2;Temp;Humidity;BMP_temperature;BMP_pressure;BME280_temperature;BME280_humidity;BME280_pressure;Samples;Min_cycle;Max_cycle;Signal;HPM_P1;HPM_P2
2022/10/08 00:00:06;;;;;;;11.80;4.10;;;13.10;99.90;;;;;;4922338;28;20055;-62
2022/10/08 00:02:32;;;;;;;11.55;4.10;;;13.10;99.90;;;;;;4877090;28;20042;-61
2022/10/08 00:04:58;;;;;;;10.27;3.67;;;13.00;99.90;;;;;;4927243;28;20047;-62
2022/10/08 00:07:24;;;;;;;13.13;3.78;;;13.00;99.90;;;;;;4928519;28;20051;-62
2022/10/08 00:09:50;;;;;;;11.77;3.63;;;13.00;99.90;;;;;;4924501;28;20117;-62
2022/10/08 00:12:16;;;;;;;8.77;3.00;;;13.00;99.90;;;;;;4926119;28;20061;-62
2022/10/08 00:14:42;;;;;;;9.00;3.47;;;13.00;99.90;;;;;;4925727;28;20062;-62
2022/10/08 00:17:08;;;;;;;12.00;3.45;;;13.00;99.90;;;;;;4925460;28;20237;-62
2022/10/08 00:19:33;;;;;;;8.95;2.90;;;13.00;99.90;;;;;;4945219;28;20043;-62
2022/10/08 00:21:59;;;;;;;8.85;2.67;;;13.00;99.90;;;;;;4941866;28;20058;-62
2022/10/08 00:24:26;;;;;;;10.77;3.33;;;13.00;99.90;;;;;;4919040;28;20158;-62
2022/10/08 00:26:52;;;;;;;12.25;3.03;;;13.00;99.90;;;;;;4916519;28;20059;-62
2022/10/08 00:29:20;;;;;;;9.55;3.05;;;13.00;99.90;;;;;;4932988;28;20051;-62
2022/10/08 00:31:49;;;;;;;11.48;2.97;;;13.00;99.90;;;;;;4945116;28;20043;-62
2022/10/08 00:34:22;;;;;;;14.13;3.17;;;13.00;99.90;;;;;;4931364;28;20101;-62
2022/10/08 00:36:53;;;;;;;12.98;2.75;;;13.00;99.90;;;;;;4935072;28;20528;-62
2022/10/08 00:39:21;;;;;;;6.70;2.80;;;13.00;99.90;;;;;;4933974;28;20464;-62
2022/10/08 00:41:51;;;;;;;9.15;2.83;;;13.00;99.90;;;;;;4927780;28;20497;-62
2022/10/08 00:44:53;;;;;;;8.70;2.40;;;12.90;99.90;;;;;;4934449;28;20094;-62
2022/10/08 00:47:32;;;;;;;11.47;2.87;;;12.90;99.90;;;;;;4940064;28;20042;-62
2022/10/08 00:50:07;;;;;;;6.95;2.45;;;12.90;99.90;;;;;;4934815;28;20540;-62
2022/10/08 00:52:38;;;;;;;6.35;2.35;;;12.90;99.90;;;;;;4944782;28;20059;-62
2022/10/08 00:55:06;;;;;;;6.00;2.10;;;12.90;99.90;;;;;;4946161;28;20564;-62
2022/10/08 00:57:34;;;;;;;7.55;1.92;;;12.90;99.90;;;;;;4948851;28;20062;-62
2022/10/08 01:00:04;;;;;;;9.93;2.38;;;12.90;99.90;;;;;;4946011;28;20042;-62
2022/10/08 01:02:30;;;;;;;7.18;1.90;;;12.90;99.90;;;;;;4943493;28;20051;-62
2022/10/08 01:04:56;;;;;;;8.27;2.35;;;12.90;99.90;;;;;;4945286;28;20517;-62
2022/10/08 01:07:29;;;;;;;7.10;1.75;;;12.90;99.90;;;;;;4950157;28;20054;-62
2022/10/08 01:10:14;;;;;;;10.43;1.98;;;12.90;99.90;;;;;;4942765;28;20143;-62
2022/10/08 01:13:05;;;;;;;9.15;2.10;;;12.90;99.90;;;;;;4945684;28;20126;-62
2022/10/08 01:16:02;;;;;;;7.35;1.92;;;12.90;99.90;;;;;;4926458;28;20047;-62
2022/10/08 01:19:05;;;;;;;6.50;1.88;;;12.80;99.90;;;;;;4930967;28;20062;-62
2022/10/08 01:21:47;;;;;;;8.45;2.10;;;12.80;99.90;;;;;;4946785;28;20047;-62
2022/10/08 01:24:18;;;;;;;6.70;1.70;;;12.80;99.90;;;;;;4952487;28;20600;-62
2022/10/08 01:26:45;;;;;;;10.07;1.98;;;12.80;99.90;;;;;;4946920;28;20445;-62
2022/10/08 01:29:24;;;;;;;5.22;1.45;;;12.80;99.90;;;;;;4945058;28;20497;-62
2022/10/08 01:32:02;;;;;;;6.57;1.55;;;12.80;99.90;;;;;;4943727;28;20086;-62
2022/10/08 01:34:59;;;;;;;6.15;1.75;;;12.80;99.90;;;;;;4950178;28;20153;-62
2022/10/08 01:37:30;;;;;;;5.20;1.75;;;12.80;99.90;;;;;;4960813;28;20039;-62
2022/10/08 01:40:01;;;;;;;8.00;1.80;;;12.70;99.90;;;;;;4947359;28;20046;-62
2022/10/08 01:42:27;;;;;;;7.55;1.50;;;12.70;99.90;;;;;;4940631;28;20057;-62
2022/10/08 01:44:59;;;;;;;5.63;1.77;;;12.70;99.90;;;;;;4930192;28;20065;-62
2022/10/08 01:47:27;;;;;;;5.50;1.90;;;12.60;99.90;;;;;;4948708;28;20054;-62
2022/10/08 01:50:01;;;;;;;8.88;1.90;;;12.60;99.90;;;;;;4957303;28;20123;-62
2022/10/08 01:52:32;;;;;;;6.78;1.60;;;12.50;99.90;;;;;;4945896;28;20492;-62
2022/10/08 01:55:02;;;;;;;5.88;2.20;;;12.50;99.90;;;;;;4947886;28;20078;-62
2022/10/08 01:57:31;;;;;;;7.88;1.83;;;12.50;99.90;;;;;;4951103;28;20055;-62
2022/10/08 02:00:02;;;;;;;4.22;1.52;;;12.40;99.90;;;;;;4928921;28;20513;-62
2022/10/08 02:02:28;;;;;;;4.93;1.73;;;12.40;99.90;;;;;;4933225;28;20513;-62
2022/10/08 02:04:54;;;;;;;5.75;1.52;;;12.40;99.90;;;;;;4952018;28;20149;-62
2022/10/08 02:07:31;;;;;;;8.27;2.05;;;12.30;99.90;;;;;;4944591;28;20066;-62
2022/10/08 02:10:08;;;;;;;6.70;1.55;;;12.30;99.90;;;;;;4951876;28;20146;-62
2022/10/08 02:12:34;;;;;;;6.18;1.60;;;12.30;99.90;;;;;;4931057;28;20050;-62
2022/10/08 02:15:03;;;;;;;5.97;1.77;;;12.20;99.90;;;;;;4945355;28;20042;-62
2022/10/08 02:18:09;;;;;;;4.70;1.40;;;12.20;99.90;;;;;;4950253;28;20047;-62
2022/10/08 02:20:57;;;;;;;6.30;1.80;;;12.10;99.90;;;;;;4878333;29;20056;-62
2022/10/08 02:23:29;;;;;;;10.23;1.63;;;12.10;99.90;;;;;;4935384;28;20052;-62
2022/10/08 02:26:01;;;;;;;5.80;1.88;;;12.00;99.90;;;;;;4956858;28;20066;-62
2022/10/08 02:28:32;;;;;;;6.95;1.60;;;12.00;99.90;;;;;;4947553;28;20055;-62
2022/10/08 02:31:05;;;;;;;5.33;1.70;;;12.00;99.90;;;;;;4946721;28;20051;-62
2022/10/08 02:33:43;;;;;;;6.50;1.60;;;11.90;99.90;;;;;;4950600;28;20047;-62
2022/10/08 02:36:12;;;;;;;5.93;1.73;;;11.90;99.90;;;;;;4947980;28;20445;-62
2022/10/08 02:38:58;;;;;;;6.75;1.90;;;11.90;99.90;;;;;;4954025;28;20145;-62
2022/10/08 02:41:37;;;;;;;6.28;2.03;;;11.90;99.90;;;;;;4955945;28;20141;-62
2022/10/08 02:44:09;;;;;;;5.68;1.60;;;11.90;99.90;;;;;;4932748;28;20046;-62
2022/10/08 02:46:39;;;;;;;5.30;1.77;;;11.80;99.90;;;;;;4937000;28;20074;-62
2022/10/08 02:49:30;;;;;;;6.57;1.75;;;11.80;99.90;;;;;;4936990;28;20481;-62
2022/10/08 02:51:58;;;;;;;8.85;2.00;;;11.80;99.90;;;;;;4939776;28;20042;-62
2022/10/08 02:54:24;;;;;;;6.45;1.90;;;11.70;99.90;;;;;;4949142;28;20059;-62
2022/10/08 02:57:05;;;;;;;8.90;1.90;;;11.70;99.90;;;;;;4965410;28;20070;-62
2022/10/08 02:59:32;;;;;;;6.05;1.58;;;11.70;99.90;;;;;;4947998;28;20051;-62
2022/10/08 03:02:01;;;;;;;9.18;2.08;;;11.70;99.90;;;;;;4953326;28;20486;-62
2022/10/08 03:04:58;;;;;;;8.45;2.08;;;11.70;99.90;;;;;;4962338;28;20043;-62
2022/10/08 03:07:31;;;;;;;8.30;2.03;;;11.60;99.90;;;;;;4936288;28;20544;-62
2022/10/08 03:10:01;;;;;;;5.18;1.85;;;11.60;99.90;;;;;;4945467;28;20051;-62
2022/10/08 03:12:29;;;;;;;7.93;2.42;;;11.60;99.90;;;;;;4948960;28;20078;-62
2022/10/08 03:14:55;;;;;;;8.25;2.10;;;11.60;99.90;;;;;;4946009;28;20051;-62
2022/10/08 03:17:31;;;;;;;10.30;2.15;;;11.60;99.90;;;;;;4948509;28;20122;-62
2022/10/08 03:20:01;;;;;;;7.43;2.33;;;11.60;99.90;;;;;;4951806;28;20081;-62
2022/10/08 03:22:29;;;;;;;9.27;2.38;;;11.60;99.90;;;;;;4943913;28;20051;-62
2022/10/08 03:24:55;;;;;;;11.25;2.25;;;11.60;99.90;;;;;;4946505;28;20773;-62
2022/10/08 03:27:21;;;;;;;9.63;1.90;;;11.60;99.90;;;;;;4927465;28;20137;-61
2022/10/08 03:29:46;;;;;;;7.78;2.25;;;11.60;99.90;;;;;;4946772;28;20074;-62
2022/10/08 03:32:12;;;;;;;8.20;2.20;;;11.60;99.90;;;;;;4953720;28;20046;-61
2022/10/08 03:34:38;;;;;;;8.65;1.80;;;11.60;99.90;;;;;;4933080;28;20051;-61
2022/10/08 03:37:04;;;;;;;8.95;2.00;;;11.60;99.90;;;;;;4963838;28;20058;-64
2022/10/08 03:39:29;;;;;;;10.10;2.10;;;11.60;99.90;;;;;;4945602;28;20062;-62
2022/10/08 03:41:55;;;;;;;10.73;2.00;;;11.60;99.90;;;;;;4948679;28;20043;-61
2022/10/08 03:44:21;;;;;;;5.53;2.08;;;11.60;99.90;;;;;;4948257;28;20057;-62
2022/10/08 03:46:47;;;;;;;11.48;2.38;;;11.60;99.90;;;;;;4936745;28;20138;-62
2022/10/08 03:49:13;;;;;;;10.55;2.55;;;11.60;99.90;;;;;;4953525;28;20150;-62
2022/10/08 03:51:38;;;;;;;7.70;2.38;;;11.60;99.90;;;;;;4945211;28;20500;-62
2022/10/08 03:54:04;;;;;;;12.32;2.63;;;11.60;99.90;;;;;;4949238;28;20077;-62
2022/10/08 03:56:30;;;;;;;12.30;2.55;;;11.70;99.90;;;;;;4936729;28;20062;-61
2022/10/08 03:58:58;;;;;;;7.78;2.17;;;11.70;99.90;;;;;;4944065;28;20567;-62
2022/10/08 04:01:25;;;;;;;11.23;2.78;;;11.70;99.90;;;;;;4952082;28;22199;-62
2022/10/08 04:03:51;;;;;;;15.02;2.70;;;11.70;99.90;;;;;;4952413;28;20441;-61
2022/10/08 04:06:18;;;;;;;12.63;2.33;;;11.70;99.90;;;;;;4942851;28;20901;-62
2022/10/08 04:08:44;;;;;;;10.45;2.30;;;11.70;99.90;;;;;;4952993;28;20130;-61
2022/10/08 04:11:15;;;;;;;11.52;2.50;;;11.70;99.90;;;;;;4945138;28;20150;-62
2022/10/08 04:13:41;;;;;;;7.82;2.53;;;11.60;99.90;;;;;;4961101;28;20823;-62
2022/10/08 04:16:11;;;;;;;11.63;2.60;;;11.60;99.90;;;;;;4946425;28;20043;-62
2022/10/08 04:18:38;;;;;;;11.70;2.28;;;11.60;99.90;;;;;;4947771;28;20141;-61
2022/10/08 04:21:06;;;;;;;10.68;2.40;;;11.50;99.90;;;;;;4934798;28;20050;-62
2022/10/08 04:23:34;;;;;;;13.85;2.65;;;11.50;99.90;;;;;;4944509;28;20560;-61
2022/10/08 04:26:00;;;;;;;8.70;2.28;;;11.50;99.90;;;;;;4953190;28;20066;-62
2022/10/08 04:28:26;;;;;;;8.88;2.75;;;11.50;99.90;;;;;;4948135;28;20677;-61
2022/10/08 04:31:00;;;;;;;12.63;2.40;;;11.40;99.90;;;;;;4944634;28;20043;-61
2022/10/08 04:33:27;;;;;;;9.27;2.22;;;11.40;99.90;;;;;;4950488;28;21896;-61
2022/10/08 04:35:54;;;;;;;8.48;2.40;;;11.30;99.90;;;;;;4945770;28;20581;-62
2022/10/08 04:38:20;;;;;;;8.70;2.35;;;11.30;99.90;;;;;;4947337;28;20504;-61
2022/10/08 04:40:46;;;;;;;8.50;2.60;;;11.20;99.90;;;;;;4946797;28;20058;-62
2022/10/08 04:43:12;;;;;;;12.02;2.70;;;11.20;99.90;;;;;;4944514;28;21382;-62
2022/10/08 04:45:43;;;;;;;8.55;2.00;;;11.20;99.90;;;;;;4946779;28;20130;-61
2022/10/08 04:48:09;;;;;;;12.00;2.58;;;11.10;99.90;;;;;;4927309;28;20402;-62
2022/10/08 04:50:35;;;;;;;9.30;2.30;;;11.10;99.90;;;;;;4945183;28;20062;-62
2022/10/08 04:53:01;;;;;;;10.93;2.53;;;11.00;99.90;;;;;;4944108;28;20055;-62
2022/10/08 04:55:26;;;;;;;7.70;2.65;;;11.00;99.90;;;;;;4943780;28;20094;-62
2022/10/08 04:57:52;;;;;;;12.07;2.80;;;11.00;99.90;;;;;;4951954;28;20119;-62
2022/10/08 05:00:18;;;;;;;11.32;2.13;;;10.90;99.90;;;;;;4947566;28;20146;-61
2022/10/08 05:02:44;;;;;;;11.93;2.83;;;10.90;99.90;;;;;;4943419;28;20201;-62
2022/10/08 05:05:10;;;;;;;14.48;2.63;;;10.90;99.90;;;;;;4944816;28;20130;-62
2022/10/08 05:07:35;;;;;;;14.13;3.25;;;10.90;99.90;;;;;;4937244;28;20047;-61
2022/10/08 05:10:01;;;;;;;10.77;2.47;;;10.90;99.90;;;;;;4948353;28;20047;-61
2022/10/08 05:12:27;;;;;;;11.30;2.63;;;10.90;99.90;;;;;;4951993;28;20051;-62
2022/10/08 05:14:53;;;;;;;13.93;2.38;;;10.80;99.90;;;;;;4938516;28;22275;-61
2022/10/08 05:17:18;;;;;;;13.23;2.58;;;10.80;99.90;;;;;;4922829;28;20074;-62
2022/10/08 05:19:44;;;;;;;10.27;2.75;;;10.80;99.90;;;;;;4945765;28;20054;-61
2022/10/08 05:22:10;;;;;;;13.73;2.97;;;10.80;99.90;;;;;;4949374;28;20077;-62
2022/10/08 05:24:36;;;;;;;11.15;2.75;;;10.80;99.90;;;;;;4940984;28;20054;-61
2022/10/08 05:27:02;;;;;;;13.05;2.33;;;10.80;99.90;;;;;;4939482;28;20062;-62
2022/10/08 05:29:29;;;;;;;10.20;2.60;;;10.70;99.90;;;;;;4928835;28;20051;-61
2022/10/08 05:31:55;;;;;;;9.77;2.38;;;10.70;99.90;;;;;;4941053;28;20125;-60
2022/10/08 05:34:21;;;;;;;9.35;2.83;;;10.70;99.90;;;;;;4956764;28;20065;-61
2022/10/08 05:36:47;;;;;;;11.32;3.00;;;10.70;99.90;;;;;;4945454;28;20035;-61
2022/10/08 05:39:13;;;;;;;12.73;2.42;;;10.70;99.90;;;;;;4965163;28;20054;-62
2022/10/08 05:41:39;;;;;;;11.60;2.55;;;10.60;99.90;;;;;;4943701;28;20077;-61
2022/10/08 05:44:06;;;;;;;7.78;2.40;;;10.60;99.90;;;;;;4944300;28;20057;-62
2022/10/08 05:46:33;;;;;;;9.68;2.50;;;10.60;99.90;;;;;;4956403;28;20078;-62
2022/10/08 05:49:01;;;;;;;9.00;2.33;;;10.60;99.90;;;;;;4948818;28;20086;-61
2022/10/08 05:51:28;;;;;;;9.30;2.60;;;10.50;99.90;;;;;;4946945;28;20050;-62
2022/10/08 05:53:58;;;;;;;9.02;2.33;;;10.50;99.90;;;;;;4952949;28;20034;-62
2022/10/08 05:56:26;;;;;;;14.35;2.97;;;10.50;99.90;;;;;;4961521;28;20128;-61
2022/10/08 05:58:52;;;;;;;11.40;2.75;;;10.50;99.90;;;;;;4957552;28;20058;-61
2022/10/08 06:01:20;;;;;;;11.45;2.38;;;10.50;99.90;;;;;;4940352;28;20133;-61
2022/10/08 06:03:51;;;;;;;12.23;2.30;;;10.50;99.90;;;;;;4952201;28;20074;-61
2022/10/08 06:06:18;;;;;;;14.80;2.78;;;10.50;99.90;;;;;;4948078;28;20502;-61
2022/10/08 06:08:45;;;;;;;19.17;2.80;;;10.40;99.90;;;;;;4915960;28;20050;-62
2022/10/08 06:11:11;;;;;;;12.75;2.30;;;10.40;99.90;;;;;;4926383;28;20449;-61
2022/10/08 06:13:36;;;;;;;10.48;2.65;;;10.40;99.90;;;;;;4943148;28;20043;-61
2022/10/08 06:16:08;;;;;;;11.70;2.60;;;10.40;99.90;;;;;;4946109;28;20109;-62
2022/10/08 06:18:36;;;;;;;12.13;3.03;;;10.40;99.90;;;;;;4946981;28;20485;-62
2022/10/08 06:21:04;;;;;;;15.32;2.40;;;10.50;99.90;;;;;;4950348;28;20058;-61
2022/10/08 06:23:30;;;;;;;11.65;2.53;;;10.50;99.90;;;;;;4949856;28;20094;-61
2022/10/08 06:26:00;;;;;;;9.38;2.83;;;10.50;99.90;;;;;;4956695;28;20067;-61
2022/10/08 06:28:25;;;;;;;11.25;2.30;;;10.40;99.90;;;;;;4953474;28;20050;-61
2022/10/08 06:30:51;;;;;;;10.35;2.58;;;10.50;99.90;;;;;;4951311;28;20039;-61
2022/10/08 06:33:17;;;;;;;8.95;2.30;;;10.50;99.90;;;;;;4939443;28;20050;-62
2022/10/08 06:35:42;;;;;;;15.77;2.80;;;10.60;99.90;;;;;;4953446;28;20047;-61
2022/10/08 06:38:08;;;;;;;10.48;2.53;;;10.60;99.90;;;;;;4957247;28;20108;-61
2022/10/08 06:40:38;;;;;;;13.23;3.35;;;10.60;99.90;;;;;;4947322;28;20050;-61
2022/10/08 06:43:16;;;;;;;14.02;2.63;;;10.70;99.90;;;;;;4952786;28;20054;-61
2022/10/08 06:45:43;;;;;;;12.02;2.15;;;10.90;99.90;;;;;;4947769;28;20085;-61
2022/10/08 06:48:10;;;;;;;16.70;2.60;;;11.00;99.90;;;;;;4950734;28;20051;-61
2022/10/08 06:50:37;;;;;;;18.90;2.70;;;11.10;99.90;;;;;;4949131;28;20047;-61
2022/10/08 06:53:05;;;;;;;11.93;2.85;;;11.20;99.90;;;;;;4956233;28;20117;-61
2022/10/08 06:55:31;;;;;;;10.00;2.05;;;11.20;99.90;;;;;;4953879;28;20106;-61
2022/10/08 06:57:57;;;;;;;10.40;2.45;;;11.20;99.90;;;;;;4965719;28;20065;-61
2022/10/08 07:00:24;;;;;;;12.43;2.50;;;11.20;99.90;;;;;;4965628;28;20056;-61
2022/10/08 07:02:49;;;;;;;12.93;2.30;;;11.20;99.90;;;;;;4952678;28;20047;-62
2022/10/08 07:05:15;;;;;;;8.60;1.65;;;11.20;99.90;;;;;;4956717;28;20050;-61
2022/10/08 07:07:41;;;;;;;10.73;2.08;;;11.20;99.90;;;;;;4961819;28;20051;-61
2022/10/08 07:10:07;;;;;;;8.95;1.67;;;11.20;99.90;;;;;;4925846;28;20055;-61
2022/10/08 07:12:33;;;;;;;7.35;1.40;;;11.20;99.90;;;;;;4946050;28;20484;-61
2022/10/08 07:14:59;;;;;;;6.88;1.58;;;11.20;99.90;;;;;;4954228;28;20045;-62
2022/10/08 07:17:27;;;;;;;7.88;1.67;;;11.20;99.90;;;;;;4926844;28;20047;-61
2022/10/08 07:19:53;;;;;;;19.98;2.30;;;11.30;99.90;;;;;;4950462;28;20051;-63
2022/10/08 07:22:19;;;;;;;11.05;2.42;;;11.30;99.90;;;;;;4954612;28;20130;-62
2022/10/08 07:24:45;;;;;;;7.65;1.60;;;11.30;99.90;;;;;;4946213;28;20586;-62
2022/10/08 07:27:11;;;;;;;7.15;1.27;;;11.30;99.90;;;;;;4936100;28;20098;-61
2022/10/08 07:29:37;;;;;;;9.75;1.95;;;11.30;99.90;;;;;;4930625;28;20047;-62
2022/10/08 07:32:03;;;;;;;9.60;1.75;;;11.30;99.90;;;;;;4950665;28;20049;-61
2022/10/08 07:34:29;;;;;;;7.32;1.33;;;11.40;99.90;;;;;;4952653;28;20122;-61
2022/10/08 07:36:54;;;;;;;8.07;1.52;;;11.40;99.90;;;;;;4951649;28;20043;-62
2022/10/08 07:39:21;;;;;;;10.00;2.03;;;11.40;99.90;;;;;;4931697;28;20042;-61
2022/10/08 07:41:48;;;;;;;5.88;1.52;;;11.50;99.90;;;;;;4945516;28;20126;-62
2022/10/08 07:44:15;;;;;;;7.85;1.70;;;11.60;99.90;;;;;;4947213;28;20055;-61
2022/10/08 07:46:43;;;;;;;4.10;1.13;;;11.60;99.90;;;;;;4957135;28;20051;-61
2022/10/08 07:49:09;;;;;;;6.35;1.30;;;11.60;99.90;;;;;;4953427;28;20047;-62
2022/10/08 07:51:35;;;;;;;8.02;1.40;;;11.50;99.90;;;;;;4930179;28;20121;-61
2022/10/08 07:54:03;;;;;;;6.43;1.40;;;11.50;99.90;;;;;;4953680;28;20055;-61
2022/10/08 07:56:29;;;;;;;7.47;1.50;;;11.50;99.90;;;;;;4969615;28;20134;-61
2022/10/08 07:58:56;;;;;;;7.63;1.63;;;11.50;99.90;;;;;;4957739;28;20051;-61
2022/10/08 08:01:28;;;;;;;7.35;1.70;;;11.70;99.90;;;;;;4936744;28;20058;-62
2022/10/08 08:04:00;;;;;;;11.63;1.67;;;11.70;99.90;;;;;;4930896;28;20047;-61
2022/10/08 08:06:27;;;;;;;8.98;1.50;;;11.80;99.90;;;;;;4957703;28;20054;-61
2022/10/08 08:08:53;;;;;;;6.25;1.35;;;11.90;99.90;;;;;;4939640;28;20050;-61
2022/10/08 08:11:21;;;;;;;6.63;1.60;;;12.00;99.90;;;;;;4951664;28;20485;-61
2022/10/08 08:13:47;;;;;;;6.55;1.80;;;12.10;99.90;;;;;;4944953;28;20131;-61
2022/10/08 08:16:16;;;;;;;7.82;1.58;;;12.20;99.90;;;;;;4953484;28;20121;-61
2022/10/08 08:18:45;;;;;;;7.88;2.17;;;12.30;99.90;;;;;;4962369;28;20530;-61
2022/10/08 08:21:20;;;;;;;6.45;1.40;;;12.50;99.90;;;;;;4952638;28;20051;-61
2022/10/08 08:23:49;;;;;;;7.10;1.75;;;12.80;99.90;;;;;;4953885;28;20043;-61
2022/10/08 08:26:20;;;;;;;8.13;1.42;;;13.00;99.90;;;;;;4959030;28;20055;-62
2022/10/08 08:28:58;;;;;;;5.10;1.20;;;13.10;99.90;;;;;;4968583;28;20050;-61
2022/10/08 08:31:30;;;;;;;8.25;2.45;;;13.20;99.90;;;;;;4955221;28;20481;-62
2022/10/08 08:33:59;;;;;;;4.22;1.27;;;13.20;99.90;;;;;;4963979;28;20663;-62
2022/10/08 08:36:27;;;;;;;12.25;1.73;;;13.20;99.90;;;;;;4962033;28;20051;-61
2022/10/08 08:38:54;;;;;;;5.50;1.48;;;13.10;99.90;;;;;;4950309;28;20050;-61
2022/10/08 08:41:44;;;;;;;4.93;1.02;;;13.10;99.90;;;;;;4954207;28;20061;-61
2022/10/08 08:44:12;;;;;;;5.15;1.27;;;13.00;99.90;;;;;;4950704;28;20042;-62
2022/10/08 08:46:42;;;;;;;5.43;1.42;;;12.90;99.90;;;;;;4950390;28;20043;-62
2022/10/08 08:49:36;;;;;;;6.85;1.45;;;12.90;99.90;;;;;;4946014;28;20102;-61
2022/10/08 08:52:05;;;;;;;7.13;1.30;;;12.80;99.90;;;;;;4951522;28;20129;-61
2022/10/08 08:54:30;;;;;;;7.65;1.30;;;12.70;99.90;;;;;;4944189;28;20402;-62
2022/10/08 08:57:10;;;;;;;7.07;1.42;;;12.80;99.90;;;;;;4926363;28;20083;-61
2022/10/08 08:59:43;;;;;;;5.00;1.30;;;12.90;99.90;;;;;;4961160;28;20126;-62
2022/10/08 09:02:16;;;;;;;;;;;13.10;99.90;;;;;;4955397;28;20483;-61
2022/10/08 09:04:46;;;;;;;;;;;13.30;99.90;;;;;;4972937;28;19965;-61
2022/10/08 09:07:15;;;;;;;7.03;1.40;;;13.60;99.90;;;;;;4955038;28;19968;-62
2022/10/08 09:09:46;;;;;;;10.05;1.80;;;13.80;99.90;;;;;;4945093;28;20067;-61
2022/10/08 09:12:22;;;;;;;6.88;1.65;;;14.00;99.90;;;;;;4943402;28;20042;-61
2022/10/08 09:14:55;;;;;;;7.15;1.45;;;14.30;99.90;;;;;;4957483;28;20835;-61
2022/10/08 09:17:31;;;;;;;6.72;1.60;;;14.30;99.90;;;;;;4952771;28;20615;-61
2022/10/08 09:19:57;;;;;;;9.13;1.33;;;14.30;99.90;;;;;;4955830;28;20535;-61
2022/10/08 09:22:35;;;;;;;10.38;1.42;;;14.30;99.90;;;;;;4933662;28;20047;-61
2022/10/08 09:25:11;;;;;;;12.52;1.67;;;14.40;99.90;;;;;;4958933;28;20054;-61
2022/10/08 09:27:49;;;;;;;11.88;1.50;;;14.60;99.90;;;;;;4951476;28;20062;-61
2022/10/08 09:30:37;;;;;;;6.68;1.60;;;14.70;99.90;;;;;;4949338;28;20109;-61
2022/10/08 09:33:15;;;;;;;11.20;1.95;;;14.60;99.90;;;;;;4942336;28;20075;-61
2022/10/08 09:35:44;;;;;;;6.95;1.23;;;14.50;99.90;;;;;;4953978;28;20099;-61
2022/10/08 09:38:25;;;;;;;11.35;1.30;;;14.40;99.90;;;;;;4955389;28;20047;-62
2022/10/08 09:41:18;;;;;;;13.57;1.95;;;14.40;99.90;;;;;;4954474;28;20089;-62
2022/10/08 09:43:55;;;;;;;13.82;1.80;;;14.50;99.90;;;;;;4950061;28;20552;-61
2022/10/08 09:46:30;;;;;;;9.82;1.70;;;14.40;99.90;;;;;;4949182;28;20057;-61
2022/10/08 09:48:56;;;;;;;9.20;1.73;;;14.30;99.90;;;;;;4960720;28;20054;-61
2022/10/08 09:51:22;;;;;;;10.82;1.70;;;14.10;99.90;;;;;;4959752;28;20496;-61
2022/10/08 09:53:51;;;;;;;10.88;1.60;;;14.00;99.90;;;;;;4960156;28;20113;-62
2022/10/08 09:56:29;;;;;;;10.52;1.50;;;13.90;99.90;;;;;;4940201;28;20055;-61
2022/10/08 09:58:58;;;;;;;8.73;1.52;;;13.70;99.90;;;;;;4951043;28;20502;-61
2022/10/08 10:01:24;;;;;;;11.05;1.88;;;13.70;99.90;;;;;;4959686;28;20055;-60
2022/10/08 10:03:55;;;;;;;8.90;1.58;;;13.70;99.90;;;;;;4964183;28;20039;-61
2022/10/08 10:06:36;;;;;;;9.20;1.55;;;14.00;99.90;;;;;;4954481;28;20051;-61
2022/10/08 10:09:10;;;;;;;11.48;2.30;;;14.20;99.90;;;;;;4951770;28;20055;-61
2022/10/08 10:12:10;;;;;;;17.88;2.28;;;14.50;99.90;;;;;;4940535;28;20051;-61
2022/10/08 10:14:43;;;;;;;12.15;1.92;;;14.90;99.90;;;;;;4947814;28;20450;-61
2022/10/08 10:17:30;;;;;;;8.68;1.55;;;15.00;99.90;;;;;;4968145;28;20195;-61
2022/10/08 10:20:19;;;;;;;9.10;1.60;;;15.20;99.90;;;;;;4969736;28;20955;-61
2022/10/08 10:23:00;;;;;;;13.75;2.00;;;15.30;99.90;;;;;;4950512;28;20057;-61
2022/10/08 10:25:57;;;;;;;9.70;2.03;;;15.50;99.90;;;;;;4935593;28;20129;-61
2022/10/08 10:28:38;;;;;;;14.25;2.13;;;15.70;99.90;;;;;;4949950;28;20137;-62
2022/10/08 10:31:19;;;;;;;5.05;1.60;;;15.80;99.90;;;;;;4951386;28;20047;-62
2022/10/08 10:34:09;;;;;;;11.85;2.10;;;15.90;99.90;;;;;;4961230;28;21119;-61
2022/10/08 10:36:41;;;;;;;9.10;1.70;;;16.00;99.20;;;;;;4959776;28;20043;-62
2022/10/08 10:39:22;;;;;;;10.82;1.65;;;16.10;99.90;;;;;;4964680;28;20489;-61
2022/10/08 10:42:07;;;;;;;12.65;2.05;;;16.20;99.50;;;;;;4963858;28;20481;-61
2022/10/08 10:44:49;;;;;;;11.05;1.95;;;16.30;99.60;;;;;;4956958;28;20047;-61
2022/10/08 10:47:20;;;;;;;17.05;2.17;;;16.50;99.10;;;;;;4965048;28;20051;-60
2022/10/08 10:49:46;;;;;;;10.40;1.85;;;16.70;98.90;;;;;;4949031;28;20055;-62
2022/10/08 10:52:42;;;;;;;7.47;1.67;;;17.00;98.90;;;;;;4958274;28;20073;-62
2022/10/08 10:55:50;;;;;;;8.68;1.40;;;17.10;98.50;;;;;;4939985;28;20043;-61
2022/10/08 10:58:39;;;;;;;5.82;1.40;;;16.90;98.10;;;;;;4955684;28;20047;-61
2022/10/08 11:01:21;;;;;;;4.93;1.30;;;16.50;98.30;;;;;;4963843;28;20047;-61
2022/10/08 11:04:51;;;;;;;7.90;1.55;;;16.20;98.90;;;;;;4958967;28;20035;-61
2022/10/08 11:07:47;;;;;;;8.30;1.80;;;16.00;99.40;;;;;;4910986;28;20062;-61
2022/10/08 11:10:16;;;;;;;10.45;1.95;;;15.70;99.50;;;;;;4954535;28;20571;-62
2022/10/08 11:13:14;;;;;;;8.68;1.75;;;15.50;99.90;;;;;;4954233;28;20847;-61
2022/10/08 11:15:58;;;;;;;8.75;1.35;;;15.60;99.90;;;;;;4931770;28;20097;-62
2022/10/08 11:18:45;;;;;;;7.00;1.52;;;15.90;99.90;;;;;;4961745;28;21629;-61
2022/10/08 11:21:20;;;;;;;9.38;1.67;;;16.10;99.90;;;;;;4943764;28;20057;-62
2022/10/08 11:24:13;;;;;;;8.80;1.42;;;16.10;99.90;;;;;;4943630;28;20924;-62
2022/10/08 11:27:06;;;;;;;15.88;2.08;;;16.00;99.90;;;;;;4962777;28;20042;-62
2022/10/08 11:29:43;;;;;;;12.15;2.20;;;15.70;99.90;;;;;;4954801;28;20054;-62
2022/10/08 11:32:15;;;;;;;11.45;2.28;;;15.50;99.90;;;;;;4951778;28;20519;-62
2022/10/08 11:34:53;;;;;;;5.93;1.48;;;15.30;99.90;;;;;;4945740;28;20583;-62
2022/10/08 11:37:48;;;;;;;4.35;0.95;;;15.00;99.90;;;;;;4938131;28;20138;-62
2022/10/08 11:40:25;;;;;;;3.50;0.60;;;14.60;99.90;;;;;;4867154;28;20068;-61
2022/10/08 11:43:16;;;;;;;2.58;0.85;;;14.30;99.90;;;;;;4937705;28;20101;-61
2022/10/08 11:45:44;;;;;;;5.47;1.10;;;14.10;99.90;;;;;;4954404;28;20054;-61
2022/10/08 11:48:33;;;;;;;5.57;1.40;;;13.90;99.90;;;;;;4970728;28;20066;-61
2022/10/08 11:51:17;;;;;;;5.18;1.23;;;13.70;99.90;;;;;;4961450;28;20720;-61
2022/10/08 11:54:13;;;;;;;8.02;1.50;;;13.60;99.90;;;;;;4941589;28;20444;-61
2022/10/08 11:56:48;;;;;;;11.30;2.20;;;13.70;99.90;;;;;;4947516;28;20055;-61
2022/10/08 11:59:38;;;;;;;7.90;1.48;;;14.00;99.90;;;;;;4944251;28;20058;-61
2022/10/08 12:02:21;;;;;;;8.05;1.52;;;14.40;99.90;;;;;;4956589;28;20051;-62
2022/10/08 12:04:47;;;;;;;7.95;2.15;;;14.80;99.90;;;;;;4937356;28;20047;-61
2022/10/08 12:07:13;;;;;;;9.82;1.25;;;15.20;99.90;;;;;;4950158;28;20050;-62
2022/10/08 12:10:29;;;;;;;10.90;2.15;;;15.60;99.90;;;;;;4967027;28;20051;-61
2022/10/08 12:12:58;;;;;;;10.07;1.77;;;15.80;99.90;;;;;;4934239;28;23539;-62
2022/10/08 12:15:27;;;;;;;11.80;2.08;;;15.90;99.90;;;;;;4949732;28;20425;-61
2022/10/08 12:17:57;;;;;;;11.98;2.33;;;16.00;99.90;;;;;;4956386;28;20039;-62
2022/10/08 12:20:29;;;;;;;10.68;1.60;;;16.20;99.90;;;;;;4941956;28;20081;-61
2022/10/08 12:23:33;;;;;;;9.15;1.52;;;16.40;99.90;;;;;;4950375;28;20442;-61
2022/10/08 12:25:58;;;;;;;11.52;1.65;;;16.30;99.90;;;;;;4940500;28;20148;-62
2022/10/08 12:28:27;;;;;;;11.30;1.95;;;16.00;99.90;;;;;;4946623;28;20137;-62
2022/10/08 12:30:54;;;;;;;12.90;2.13;;;15.80;99.90;;;;;;4947809;28;20051;-61
2022/10/08 12:33:21;;;;;;;10.13;2.40;;;15.60;99.90;;;;;;4952993;28;20121;-63
2022/10/08 12:35:59;;;;;;;11.40;1.75;;;15.50;99.90;;;;;;4950130;28;20390;-61
2022/10/08 12:38:43;;;;;;;9.50;1.60;;;15.30;99.90;;;;;;4951528;28;20057;-63
2022/10/08 12:41:43;;;;;;;7.30;1.48;;;15.10;99.90;;;;;;4951059;28;20046;-60
2022/10/08 12:44:18;;;;;;;7.68;1.40;;;14.90;99.90;;;;;;4931751;28;20045;-61
2022/10/08 12:46:59;;;;;;;4.65;1.30;;;14.70;99.90;;;;;;4924291;28;20050;-55
2022/10/08 12:49:41;;;;;;;7.25;1.17;;;14.80;99.90;;;;;;4941543;28;20450;-58
2022/10/08 12:52:16;;;;;;;7.82;1.50;;;14.90;99.80;;;;;;4949357;28;20054;-58
2022/10/08 12:54:54;;;;;;;6.90;1.65;;;14.90;99.90;;;;;;4954278;28;20685;-58
2022/10/08 12:57:34;;;;;;;7.47;1.70;;;14.80;99.90;;;;;;4953393;28;20162;-59
2022/10/08 13:00:09;;;;;;;7.45;1.65;;;14.70;99.90;;;;;;4955133;28;20088;-58
2022/10/08 13:02:37;;;;;;;5.50;1.48;;;14.60;99.90;;;;;;4936409;28;20058;-58
2022/10/08 13:05:20;;;;;;;9.10;1.70;;;14.40;99.90;;;;;;4954191;28;20408;-58
2022/10/08 13:07:46;;;;;;;4.60;1.38;;;14.20;99.90;;;;;;4955978;28;20053;-56
2022/10/08 13:10:18;;;;;;;4.80;1.30;;;14.20;99.90;;;;;;4952630;28;20055;-59